Aeroporto :
LOGIN :

Iscrizione | Disclaimer

   EN    FR    IT 

 










Sommario :    VFR   VFR Marginale   IFR   IFR Intensivo   IFR Molto Intensivo
Visibilità : 
Base nubi : 
>= 8 km
>= 3000ft
5 / 8 km
1000 / 3000 ft
1500m / 5 km
500 / 1000 ft
800 / 1500m
200 / 500 ft
< 800m
< 200 ft
Simboli :   Temporali  Nebbia  Neve Forte  Precipitazioni Forti  Vento > 20 kt
SIGMETs :   Varie  Temporali  Ghiacco  Turbolenza  Onda orograficha  Ceneri Vulcaniche






- Altitudine del aeroporto : 1708 ft
- Codice IATA : SJJ


LQSA - Sarajevo

ULTIMO METAR :
  • 020730Z 31003KT 280V350 CAVOK 06/04 Q1011 NOSIG

METARs OBSOLETI :
  • 020700Z VRB01KT CAVOK 04/03 Q1010 NOSIG
  • 020630Z VRB01KT CAVOK 03/02 Q1010 NOSIG
  • 020600Z VRB02KT CAVOK 02/02 Q1010 NOSIG
  • 020530Z VRB01KT CAVOK 02/02 Q1010 NOSIG
  • 020500Z 00000KT CAVOK 02/02 Q1010 NOSIG
  • 020430Z 00000KT CAVOK 02/02 Q1010 NOSIG
  • 012100Z VRB02KT CAVOK 08/03 Q1009 NOSIG
  • 020400Z VRB01KT CAVOK 03/02 Q1009
  • 020330Z VRB01KT CAVOK 03/03 Q1009
  • 020300Z VRB01KT CAVOK 04/03 Q1009

TAF TAF LQSA
Valido dal 02 a 06 ore il 03 a 06 ore UTC


020500Z 0206/0306 VRB05KT 9999 SCT050 TX16/0213Z TN02/0206Z
TEMPO 0211/0217 15012KT



MetMap, La meteo Aeronautica in un colpo d'occhio ! - Copyright ORBIFLY Dicembre 2007 - Disclaimer

ORBIFLY MET'MAP TEAM :

Programmazione e sviluppo : Alexandra Zaïnal
Concezione : Baudouin d'Aumeries
Supporto tecnico e logistico : Manuel Goepfert
Aiuto : Marc-Olivier Méhu
Aiuto per la traduzione : Arnaldo La Scala




FONTI E CREDITI :

   NOAA